sensor_id;sensor_type;location;lat;lon;timestamp;pressure;altitude;pressure_sealevel;temperature;humidity
7297;BME280;40758;54.038;11.684;2023-05-23T00:00:15;101089.44;;;15.06;62.92
7297;BME280;40758;54.038;11.684;2023-05-23T00:02:42;101091.03;;;15.02;62.85
7297;BME280;40758;54.038;11.684;2023-05-23T00:05:10;101089.59;;;15.00;63.58
7297;BME280;40758;54.038;11.684;2023-05-23T00:07:36;101092.56;;;14.98;63.69
7297;BME280;40758;54.038;11.684;2023-05-23T00:10:04;101084.84;;;14.95;64.40
7297;BME280;40758;54.038;11.684;2023-05-23T00:12:31;101093.53;;;14.92;64.17
7297;BME280;40758;54.038;11.684;2023-05-23T00:14:59;101094.50;;;14.86;64.03
7297;BME280;40758;54.038;11.684;2023-05-23T00:17:26;101088.69;;;14.82;64.09
7297;BME280;40758;54.038;11.684;2023-05-23T00:19:53;101089.38;;;14.89;64.93
7297;BME280;40758;54.038;11.684;2023-05-23T00:22:21;101090.94;;;14.85;64.67
7297;BME280;40758;54.038;11.684;2023-05-23T00:24:48;101086.78;;;14.83;64.79
7297;BME280;40758;54.038;11.684;2023-05-23T00:27:15;101082.03;;;14.78;64.62
7297;BME280;40758;54.038;11.684;2023-05-23T00:29:41;101085.63;;;14.79;65.00
7297;BME280;40758;54.038;11.684;2023-05-23T00:32:08;101092.84;;;14.85;65.73
7297;BME280;40758;54.038;11.684;2023-05-23T00:34:35;101079.91;;;14.80;65.63
7297;BME280;40758;54.038;11.684;2023-05-23T00:37:03;101093.31;;;14.82;66.11
7297;BME280;40758;54.038;11.684;2023-05-23T00:39:30;101087.28;;;14.80;66.77
7297;BME280;40758;54.038;11.684;2023-05-23T00:41:57;101096.63;;;14.84;67.38
7297;BME280;40758;54.038;11.684;2023-05-23T00:44:24;101078.97;;;14.75;67.90
7297;BME280;40758;54.038;11.684;2023-05-23T00:46:54;101089.41;;;14.78;67.76
7297;BME280;40758;54.038;11.684;2023-05-23T00:49:22;101088.31;;;14.90;68.69
7297;BME280;40758;54.038;11.684;2023-05-23T00:51:50;101081.63;;;14.98;69.18
7297;BME280;40758;54.038;11.684;2023-05-23T00:54:19;101081.13;;;15.01;69.09
7297;BME280;40758;54.038;11.684;2023-05-23T00:56:47;101063.06;;;15.00;68.90
7297;BME280;40758;54.038;11.684;2023-05-23T00:59:14;101042.16;;;14.94;69.47
7297;BME280;40758;54.038;11.684;2023-05-23T01:01:42;101066.19;;;14.92;69.30
7297;BME280;40758;54.038;11.684;2023-05-23T01:04:13;101068.25;;;14.85;70.51
7297;BME280;40758;54.038;11.684;2023-05-23T01:06:42;101068.84;;;14.75;71.25
7297;BME280;40758;54.038;11.684;2023-05-23T01:09:14;101069.56;;;14.71;72.21
7297;BME280;40758;54.038;11.684;2023-05-23T01:11:52;101050.59;;;14.52;72.12
7297;BME280;40758;54.038;11.684;2023-05-23T01:14:39;101061.78;;;14.51;71.95
7297;BME280;40758;54.038;11.684;2023-05-23T01:17:16;101055.94;;;14.59;73.78
7297;BME280;40758;54.038;11.684;2023-05-23T01:20:03;101067.34;;;14.56;74.82
7297;BME280;40758;54.038;11.684;2023-05-23T01:22:48;101050.97;;;14.56;75.20
7297;BME280;40758;54.038;11.684;2023-05-23T01:28:28;101056.50;;;14.26;74.93
7297;BME280;40758;54.038;11.684;2023-05-23T01:30:59;101071.94;;;14.32;75.30
7297;BME280;40758;54.038;11.684;2023-05-23T01:33:28;101072.44;;;14.29;75.92
7297;BME280;40758;54.038;11.684;2023-05-23T01:35:56;101063.16;;;14.42;77.10
7297;BME280;40758;54.038;11.684;2023-05-23T01:38:24;101070.16;;;14.37;77.38
7297;BME280;40758;54.038;11.684;2023-05-23T01:40:52;101079.22;;;14.38;78.06
7297;BME280;40758;54.038;11.684;2023-05-23T01:43:19;101074.59;;;14.27;78.46
7297;BME280;40758;54.038;11.684;2023-05-23T01:45:47;101070.91;;;14.09;78.15
7297;BME280;40758;54.038;11.684;2023-05-23T01:48:15;101040.84;;;13.86;78.05
7297;BME280;40758;54.038;11.684;2023-05-23T01:50:43;101055.91;;;13.89;78.48
7297;BME280;40758;54.038;11.684;2023-05-23T01:53:17;101045.22;;;13.75;79.25
7297;BME280;40758;54.038;11.684;2023-05-23T01:55:44;101057.94;;;13.81;79.60
7297;BME280;40758;54.038;11.684;2023-05-23T01:58:12;101052.72;;;13.80;80.06
7297;BME280;40758;54.038;11.684;2023-05-23T02:00:39;101053.75;;;13.79;80.39
7297;BME280;40758;54.038;11.684;2023-05-23T02:03:06;101048.91;;;13.81;80.43
7297;BME280;40758;54.038;11.684;2023-05-23T02:05:33;101033.25;;;13.76;80.27
7297;BME280;40758;54.038;11.684;2023-05-23T02:08:00;101033.00;;;13.78;80.55
7297;BME280;40758;54.038;11.684;2023-05-23T02:10:26;101022.06;;;13.66;80.31
7297;BME280;40758;54.038;11.684;2023-05-23T02:12:53;101023.84;;;13.61;80.05
7297;BME280;40758;54.038;11.684;2023-05-23T02:15:20;101024.53;;;13.56;80.18
7297;BME280;40758;54.038;11.684;2023-05-23T02:17:46;101021.66;;;13.51;80.02
7297;BME280;40758;54.038;11.684;2023-05-23T02:20:13;101024.06;;;13.47;80.34
7297;BME280;40758;54.038;11.684;2023-05-23T02:22:41;101007.31;;;13.44;81.15
7297;BME280;40758;54.038;11.684;2023-05-23T02:25:08;101014.66;;;13.43;81.11
7297;BME280;40758;54.038;11.684;2023-05-23T02:27:35;101014.31;;;13.40;81.08
7297;BME280;40758;54.038;11.684;2023-05-23T02:30:02;101025.44;;;13.38;81.44
7297;BME280;40758;54.038;11.684;2023-05-23T02:32:29;101022.13;;;13.36;81.38
7297;BME280;40758;54.038;11.684;2023-05-23T02:34:56;101014.19;;;13.35;81.31
7297;BME280;40758;54.038;11.684;2023-05-23T02:37:23;101011.47;;;13.35;81.62
7297;BME280;40758;54.038;11.684;2023-05-23T02:39:51;101019.25;;;13.31;81.64
7297;BME280;40758;54.038;11.684;2023-05-23T02:42:18;101018.44;;;13.30;81.80
7297;BME280;40758;54.038;11.684;2023-05-23T02:44:44;101016.78;;;13.29;81.87
7297;BME280;40758;54.038;11.684;2023-05-23T02:47:12;101011.75;;;13.26;81.85
7297;BME280;40758;54.038;11.684;2023-05-23T02:49:41;101018.28;;;13.25;81.68
7297;BME280;40758;54.038;11.684;2023-05-23T02:52:08;101017.59;;;13.30;82.20
7297;BME280;40758;54.038;11.684;2023-05-23T02:54:35;101015.13;;;13.28;82.47
7297;BME280;40758;54.038;11.684;2023-05-23T02:57:01;101022.22;;;13.29;82.35
7297;BME280;40758;54.038;11.684;2023-05-23T02:59:29;101020.31;;;13.30;82.91
7297;BME280;40758;54.038;11.684;2023-05-23T03:01:56;101019.25;;;13.31;82.98
7297;BME280;40758;54.038;11.684;2023-05-23T03:04:23;101014.63;;;13.31;83.00
7297;BME280;40758;54.038;11.684;2023-05-23T03:06:50;101016.81;;;13.41;83.51
7297;BME280;40758;54.038;11.684;2023-05-23T03:09:19;101025.13;;;13.46;83.75
7297;BME280;40758;54.038;11.684;2023-05-23T03:11:47;101026.63;;;13.42;83.38
7297;BME280;40758;54.038;11.684;2023-05-23T03:14:14;101020.13;;;13.43;83.97
7297;BME280;40758;54.038;11.684;2023-05-23T03:16:40;101016.19;;;13.39;83.45
7297;BME280;40758;54.038;11.684;2023-05-23T03:19:07;101027.22;;;13.44;83.85
7297;BME280;40758;54.038;11.684;2023-05-23T03:21:37;101015.97;;;13.41;83.70
7297;BME280;40758;54.038;11.684;2023-05-23T03:24:06;100999.72;;;13.34;83.44
7297;BME280;40758;54.038;11.684;2023-05-23T03:26:33;101015.03;;;13.47;84.07
7297;BME280;40758;54.038;11.684;2023-05-23T03:29:00;101014.78;;;13.48;83.79
7297;BME280;40758;54.038;11.684;2023-05-23T03:31:26;101016.44;;;13.49;83.99
7297;BME280;40758;54.038;11.684;2023-05-23T03:33:53;101009.72;;;13.52;84.05
7297;BME280;40758;54.038;11.684;2023-05-23T03:36:20;101009.47;;;13.53;84.07
7297;BME280;40758;54.038;11.684;2023-05-23T03:38:51;101000.69;;;13.51;84.16
7297;BME280;40758;54.038;11.684;2023-05-23T03:41:18;101004.84;;;13.54;84.16
7297;BME280;40758;54.038;11.684;2023-05-23T03:43:45;101004.84;;;13.54;84.06
7297;BME280;40758;54.038;11.684;2023-05-23T03:46:12;101004.00;;;13.53;83.98
7297;BME280;40758;54.038;11.684;2023-05-23T03:48:40;101013.63;;;13.56;84.18
7297;BME280;40758;54.038;11.684;2023-05-23T03:51:07;101005.53;;;13.49;84.13
7297;BME280;40758;54.038;11.684;2023-05-23T03:53:33;101014.00;;;13.60;84.35
7297;BME280;40758;54.038;11.684;2023-05-23T03:56:02;101004.00;;;13.53;84.68
7297;BME280;40758;54.038;11.684;2023-05-23T03:58:29;101015.88;;;13.59;84.84
7297;BME280;40758;54.038;11.684;2023-05-23T04:00:56;101016.84;;;13.65;85.13
7297;BME280;40758;54.038;11.684;2023-05-23T04:03:25;101017.91;;;13.64;85.23
7297;BME280;40758;54.038;11.684;2023-05-23T04:05:54;101018.50;;;13.66;85.12
7297;BME280;40758;54.038;11.684;2023-05-23T04:08:23;101018.25;;;13.67;85.25
7297;BME280;40758;54.038;11.684;2023-05-23T04:10:50;101021.72;;;13.63;85.44
7297;BME280;40758;54.038;11.684;2023-05-23T04:13:17;101015.88;;;13.59;85.64
7297;BME280;40758;54.038;11.684;2023-05-23T04:15:43;101030.72;;;13.63;85.43
7297;BME280;40758;54.038;11.684;2023-05-23T04:18:11;101026.69;;;13.66;85.70
7297;BME280;40758;54.038;11.684;2023-05-23T04:20:38;101024.78;;;13.66;85.28
7297;BME280;40758;54.038;11.684;2023-05-23T04:23:05;101014.56;;;13.62;85.31
7297;BME280;40758;54.038;11.684;2023-05-23T04:25:32;101024.09;;;13.71;85.74
7297;BME280;40758;54.038;11.684;2023-05-23T04:27:59;101017.19;;;13.68;85.69
7297;BME280;40758;54.038;11.684;2023-05-23T04:30:26;101016.63;;;13.78;86.16
7297;BME280;40758;54.038;11.684;2023-05-23T04:32:55;101006.31;;;13.80;86.33
7297;BME280;40758;54.038;11.684;2023-05-23T04:35:25;101004.41;;;13.80;86.43
7297;BME280;40758;54.038;11.684;2023-05-23T04:37:55;101000.50;;;13.76;86.69
7297;BME280;40758;54.038;11.684;2023-05-23T04:40:22;100996.69;;;13.66;86.43
7297;BME280;40758;54.038;11.684;2023-05-23T04:42:49;100997.19;;;13.74;86.40
7297;BME280;40758;54.038;11.684;2023-05-23T04:45:20;100994.44;;;13.74;86.35
7297;BME280;40758;54.038;11.684;2023-05-23T04:47:47;100997.06;;;13.81;86.29
7297;BME280;40758;54.038;11.684;2023-05-23T04:50:14;100999.31;;;13.84;86.27
7297;BME280;40758;54.038;11.684;2023-05-23T04:52:41;100995.28;;;13.98;87.01
7297;BME280;40758;54.038;11.684;2023-05-23T04:55:07;100986.59;;;14.01;86.94
7297;BME280;40758;54.038;11.684;2023-05-23T04:57:35;100995.84;;;14.12;87.18
7297;BME280;40758;54.038;11.684;2023-05-23T05:00:03;100983.41;;;14.04;86.98
7297;BME280;40758;54.038;11.684;2023-05-23T05:02:38;101002.28;;;14.18;86.86
7297;BME280;40758;54.038;11.684;2023-05-23T05:05:05;100994.06;;;14.18;86.89
7297;BME280;40758;54.038;11.684;2023-05-23T05:07:32;100970.84;;;14.03;86.74
7297;BME280;40758;54.038;11.684;2023-05-23T05:10:01;100981.25;;;14.18;86.90
7297;BME280;40758;54.038;11.684;2023-05-23T05:12:29;100999.28;;;14.31;86.84
7297;BME280;40758;54.038;11.684;2023-05-23T05:14:56;100984.31;;;14.33;87.01
7297;BME280;40758;54.038;11.684;2023-05-23T05:17:22;100983.94;;;14.42;87.01
7297;BME280;40758;54.038;11.684;2023-05-23T05:19:50;100963.75;;;14.31;86.92
7297;BME280;40758;54.038;11.684;2023-05-23T05:22:17;100989.75;;;14.45;87.14
7297;BME280;40758;54.038;11.684;2023-05-23T05:24:43;100986.22;;;14.45;86.99
7297;BME280;40758;54.038;11.684;2023-05-23T05:27:10;100985.75;;;14.48;87.21
7297;BME280;40758;54.038;11.684;2023-05-23T05:29:37;100989.09;;;14.50;87.23
7297;BME280;40758;54.038;11.684;2023-05-23T05:32:04;100985.84;;;14.53;87.00
7297;BME280;40758;54.038;11.684;2023-05-23T05:34:34;100981.44;;;14.63;87.29
7297;BME280;40758;54.038;11.684;2023-05-23T05:37:04;100976.91;;;14.69;87.23
7297;BME280;40758;54.038;11.684;2023-05-23T05:39:31;100977.09;;;14.79;87.41
7297;BME280;40758;54.038;11.684;2023-05-23T05:41:58;100980.41;;;14.81;87.16
7297;BME280;40758;54.038;11.684;2023-05-23T05:44:26;100971.97;;;14.83;87.21
7297;BME280;40758;54.038;11.684;2023-05-23T05:46:53;100978.75;;;14.80;87.13
7297;BME280;40758;54.038;11.684;2023-05-23T05:49:21;100977.00;;;14.74;87.06
7297;BME280;40758;54.038;11.684;2023-05-23T05:51:48;100976.66;;;14.71;86.95
7297;BME280;40758;54.038;11.684;2023-05-23T05:54:14;100980.47;;;14.70;87.04
7297;BME280;40758;54.038;11.684;2023-05-23T05:56:45;100963.69;;;14.66;87.34
7297;BME280;40758;54.038;11.684;2023-05-23T05:59:12;100986.59;;;14.77;87.55
7297;BME280;40758;54.038;11.684;2023-05-23T06:01:40;100962.69;;;14.55;87.74
7297;BME280;40758;54.038;11.684;2023-05-23T06:04:07;100984.41;;;14.62;87.68
7297;BME280;40758;54.038;11.684;2023-05-23T06:06:34;100977.88;;;14.63;87.63
7297;BME280;40758;54.038;11.684;2023-05-23T06:09:01;100970.97;;;14.60;87.65
7297;BME280;40758;54.038;11.684;2023-05-23T06:11:27;100965.50;;;14.60;87.74
7297;BME280;40758;54.038;11.684;2023-05-23T06:13:54;100956.72;;;14.58;87.70
7297;BME280;40758;54.038;11.684;2023-05-23T06:16:21;100961.31;;;14.70;87.93
7297;BME280;40758;54.038;11.684;2023-05-23T06:18:48;100965.56;;;14.77;87.91
7297;BME280;40758;54.038;11.684;2023-05-23T06:21:16;100957.22;;;14.84;88.02
7297;BME280;40758;54.038;11.684;2023-05-23T06:23:43;100978.41;;;15.05;87.94
7297;BME280;40758;54.038;11.684;2023-05-23T06:26:10;100974.38;;;15.25;88.09
7297;BME280;40758;54.038;11.684;2023-05-23T06:28:40;100977.59;;;15.22;87.43
7297;BME280;40758;54.038;11.684;2023-05-23T06:31:07;100961.44;;;15.03;87.06
7297;BME280;40758;54.038;11.684;2023-05-23T06:33:36;100975.75;;;15.10;87.33
7297;BME280;40758;54.038;11.684;2023-05-23T06:36:04;100996.41;;;15.18;87.34
7297;BME280;40758;54.038;11.684;2023-05-23T06:38:32;101006.97;;;15.26;87.55
7297;BME280;40758;54.038;11.684;2023-05-23T06:41:01;100982.06;;;15.11;87.44
7297;BME280;40758;54.038;11.684;2023-05-23T06:43:29;100996.19;;;15.20;87.29
7297;BME280;40758;54.038;11.684;2023-05-23T06:45:56;100996.75;;;15.22;87.26
7297;BME280;40758;54.038;11.684;2023-05-23T06:48:23;100996.25;;;15.25;87.32
7297;BME280;40758;54.038;11.684;2023-05-23T06:50:52;101006.63;;;15.23;87.25
7297;BME280;40758;54.038;11.684;2023-05-23T06:53:19;100997.50;;;15.17;87.26
7297;BME280;40758;54.038;11.684;2023-05-23T06:55:46;101003.06;;;15.22;87.22
7297;BME280;40758;54.038;11.684;2023-05-23T06:58:12;100997.59;;;15.22;86.96
7297;BME280;40758;54.038;11.684;2023-05-23T07:00:40;100992.63;;;15.19;87.03
7297;BME280;40758;54.038;11.684;2023-05-23T07:03:07;100991.19;;;15.16;86.91
7297;BME280;40758;54.038;11.684;2023-05-23T07:05:34;100994.03;;;15.22;87.21
7297;BME280;40758;54.038;11.684;2023-05-23T07:08:06;100987.56;;;15.28;87.26
7297;BME280;40758;54.038;11.684;2023-05-23T07:10:33;100987.06;;;15.48;87.58
7297;BME280;40758;54.038;11.684;2023-05-23T07:13:00;100991.25;;;15.50;87.17
7297;BME280;40758;54.038;11.684;2023-05-23T07:15:27;100998.72;;;15.55;86.96
7297;BME280;40758;54.038;11.684;2023-05-23T07:17:54;101008.50;;;15.51;86.95
7297;BME280;40758;54.038;11.684;2023-05-23T07:20:21;101012.16;;;15.56;86.90
7297;BME280;40758;54.038;11.684;2023-05-23T07:22:48;101015.97;;;15.55;86.78
7297;BME280;40758;54.038;11.684;2023-05-23T07:25:17;101018.44;;;15.57;87.07
7297;BME280;40758;54.038;11.684;2023-05-23T07:27:44;101021.03;;;15.63;87.22
7297;BME280;40758;54.038;11.684;2023-05-23T07:30:11;101020.94;;;15.58;87.00
7297;BME280;40758;54.038;11.684;2023-05-23T07:32:37;101010.66;;;15.49;86.92
7297;BME280;40758;54.038;11.684;2023-05-23T07:35:05;101021.53;;;15.60;87.06
7297;BME280;40758;54.038;11.684;2023-05-23T07:37:32;101027.84;;;15.61;86.99
7297;BME280;40758;54.038;11.684;2023-05-23T07:39:59;101032.13;;;15.57;86.85
7297;BME280;40758;54.038;11.684;2023-05-23T07:42:26;101023.91;;;15.57;86.93
7297;BME280;40758;54.038;11.684;2023-05-23T07:44:53;101040.81;;;15.54;86.93
7297;BME280;40758;54.038;11.684;2023-05-23T07:47:20;101024.81;;;15.46;87.13
7297;BME280;40758;54.038;11.684;2023-05-23T07:49:47;101038.16;;;15.42;86.98
7297;BME280;40758;54.038;11.684;2023-05-23T07:52:14;101044.13;;;15.39;87.21
7297;BME280;40758;54.038;11.684;2023-05-23T07:54:40;101030.75;;;15.26;86.84
7297;BME280;40758;54.038;11.684;2023-05-23T07:57:08;101022.41;;;15.04;86.92
7297;BME280;40758;54.038;11.684;2023-05-23T07:59:35;101032.63;;;15.08;87.19
7297;BME280;40758;54.038;11.684;2023-05-23T08:02:02;101034.44;;;15.03;87.06
7297;BME280;40758;54.038;11.684;2023-05-23T08:04:29;101030.16;;;14.95;87.10
7297;BME280;40758;54.038;11.684;2023-05-23T08:06:56;101039.53;;;14.99;87.30
7297;BME280;40758;54.038;11.684;2023-05-23T08:09:31;101042.72;;;15.08;87.45
7297;BME280;40758;54.038;11.684;2023-05-23T08:11:58;101043.25;;;15.22;87.47
7297;BME280;40758;54.038;11.684;2023-05-23T08:14:26;101044.84;;;15.34;87.22
7297;BME280;40758;54.038;11.684;2023-05-23T08:17:07;101050.69;;;15.66;87.26
7297;BME280;40758;54.038;11.684;2023-05-23T08:19:35;101047.53;;;15.91;86.84
7297;BME280;40758;54.038;11.684;2023-05-23T08:22:02;101049.84;;;16.00;85.97
7297;BME280;40758;54.038;11.684;2023-05-23T08:24:30;101057.09;;;15.89;85.06
7297;BME280;40758;54.038;11.684;2023-05-23T08:26:59;101052.50;;;15.78;84.14
7297;BME280;40758;54.038;11.684;2023-05-23T08:29:26;101061.56;;;15.78;83.88
7297;BME280;40758;54.038;11.684;2023-05-23T08:31:53;101050.34;;;15.63;83.32
7297;BME280;40758;54.038;11.684;2023-05-23T08:34:20;101074.13;;;15.62;82.99
7297;BME280;40758;54.038;11.684;2023-05-23T08:36:47;101064.72;;;15.58;82.54
7297;BME280;40758;54.038;11.684;2023-05-23T08:39:14;101063.56;;;15.54;82.47
7297;BME280;40758;54.038;11.684;2023-05-23T08:41:44;101069.03;;;15.54;81.93
7297;BME280;40758;54.038;11.684;2023-05-23T08:44:13;101063.06;;;15.57;81.48
7297;BME280;40758;54.038;11.684;2023-05-23T08:46:45;101066.22;;;15.49;80.52
7297;BME280;40758;54.038;11.684;2023-05-23T08:49:16;101065.94;;;15.62;80.87
7297;BME280;40758;54.038;11.684;2023-05-23T08:51:45;101048.03;;;15.43;79.68
7297;BME280;40758;54.038;11.684;2023-05-23T08:54:16;101060.03;;;15.42;79.64
7297;BME280;40758;54.038;11.684;2023-05-23T08:56:44;101058.78;;;15.33;79.50
7297;BME280;40758;54.038;11.684;2023-05-23T08:59:13;101060.03;;;15.25;78.99
7297;BME280;40758;54.038;11.684;2023-05-23T09:01:42;101075.84;;;15.23;78.88
7297;BME280;40758;54.038;11.684;2023-05-23T09:04:12;101092.13;;;15.18;78.63
7297;BME280;40758;54.038;11.684;2023-05-23T09:06:39;101086.50;;;15.08;78.37
7297;BME280;40758;54.038;11.684;2023-05-23T09:09:07;101085.91;;;14.94;77.96
7297;BME280;40758;54.038;11.684;2023-05-23T09:11:35;101091.41;;;14.82;78.01
7297;BME280;40758;54.038;11.684;2023-05-23T09:14:02;101098.91;;;14.75;78.15
7297;BME280;40758;54.038;11.684;2023-05-23T09:16:34;101097.06;;;14.52;77.46
7297;BME280;40758;54.038;11.684;2023-05-23T09:19:11;101108.78;;;14.41;77.80
7297;BME280;40758;54.038;11.684;2023-05-23T09:21:43;101078.97;;;14.28;77.99
7297;BME280;40758;54.038;11.684;2023-05-23T09:24:11;101108.31;;;14.44;78.11
7297;BME280;40758;54.038;11.684;2023-05-23T09:26:38;101104.53;;;14.57;78.25
7297;BME280;40758;54.038;11.684;2023-05-23T09:29:05;101115.09;;;14.53;77.96
7297;BME280;40758;54.038;11.684;2023-05-23T09:31:33;101123.91;;;14.55;77.66
7297;BME280;40758;54.038;11.684;2023-05-23T09:34:00;101129.97;;;14.57;77.69
7297;BME280;40758;54.038;11.684;2023-05-23T09:36:28;101091.06;;;14.44;77.47
7297;BME280;40758;54.038;11.684;2023-05-23T09:39:02;101095.97;;;14.53;77.29
7297;BME280;40758;54.038;11.684;2023-05-23T09:41:33;101103.56;;;14.75;77.25
7297;BME280;40758;54.038;11.684;2023-05-23T09:44:06;101135.97;;;14.83;76.14
7297;BME280;40758;54.038;11.684;2023-05-23T09:46:35;101123.97;;;14.84;75.49
7297;BME280;40758;54.038;11.684;2023-05-23T09:49:14;101128.47;;;14.90;75.25
7297;BME280;40758;54.038;11.684;2023-05-23T09:51:41;101132.63;;;15.04;75.17
7297;BME280;40758;54.038;11.684;2023-05-23T09:54:08;101137.34;;;15.21;74.86
7297;BME280;40758;54.038;11.684;2023-05-23T09:56:39;101146.44;;;15.38;74.33
7297;BME280;40758;54.038;11.684;2023-05-23T09:59:10;101137.78;;;15.29;73.37
7297;BME280;40758;54.038;11.684;2023-05-23T10:01:42;101139.69;;;15.29;73.33
7297;BME280;40758;54.038;11.684;2023-05-23T10:04:11;101135.00;;;15.41;73.26
7297;BME280;40758;54.038;11.684;2023-05-23T10:06:40;101117.44;;;15.37;73.34
7297;BME280;40758;54.038;11.684;2023-05-23T10:09:12;101145.97;;;15.69;73.13
7297;BME280;40758;54.038;11.684;2023-05-23T10:14:43;101128.66;;;15.81;72.69
7297;BME280;40758;54.038;11.684;2023-05-23T10:17:18;101134.72;;;16.00;72.39
7297;BME280;40758;54.038;11.684;2023-05-23T10:19:51;101154.09;;;16.10;72.43
7297;BME280;40758;54.038;11.684;2023-05-23T10:22:19;101157.56;;;16.05;72.71
7297;BME280;40758;54.038;11.684;2023-05-23T10:24:47;101140.38;;;15.93;73.29
7297;BME280;40758;54.038;11.684;2023-05-23T10:27:14;101148.41;;;15.83;73.61
7297;BME280;40758;54.038;11.684;2023-05-23T10:29:42;101158.53;;;15.82;74.20
7297;BME280;40758;54.038;11.684;2023-05-23T10:32:11;101160.66;;;15.52;74.05
7297;BME280;40758;54.038;11.684;2023-05-23T10:34:56;101156.00;;;15.24;74.49
7297;BME280;40758;54.038;11.684;2023-05-23T10:37:38;101153.53;;;15.10;75.18
7297;BME280;40758;54.038;11.684;2023-05-23T10:43:15;101152.00;;;15.14;75.42
7297;BME280;40758;54.038;11.684;2023-05-23T10:45:45;101158.72;;;15.24;75.55
7297;BME280;40758;54.038;11.684;2023-05-23T10:48:20;101155.38;;;15.33;75.01
7297;BME280;40758;54.038;11.684;2023-05-23T10:51:05;101167.88;;;15.29;74.36
7297;BME280;40758;54.038;11.684;2023-05-23T10:53:56;101172.66;;;15.22;74.88
7297;BME280;40758;54.038;11.684;2023-05-23T10:56:23;101173.75;;;15.09;74.61
7297;BME280;40758;54.038;11.684;2023-05-23T10:58:54;101179.00;;;14.99;74.64
7297;BME280;40758;54.038;11.684;2023-05-23T11:01:22;101189.13;;;14.87;74.91
7297;BME280;40758;54.038;11.684;2023-05-23T11:03:52;101184.03;;;14.90;75.25
7297;BME280;40758;54.038;11.684;2023-05-23T11:06:41;101201.47;;;15.01;75.12
7297;BME280;40758;54.038;11.684;2023-05-23T11:09:15;101190.75;;;15.11;74.83
7297;BME280;40758;54.038;11.684;2023-05-23T11:12:06;101203.16;;;14.79;74.88
7297;BME280;40758;54.038;11.684;2023-05-23T11:14:50;101206.47;;;14.57;75.55
7297;BME280;40758;54.038;11.684;2023-05-23T11:17:32;101201.25;;;14.14;76.42
7297;BME280;40758;54.038;11.684;2023-05-23T11:20:04;101214.16;;;13.95;77.45
7297;BME280;40758;54.038;11.684;2023-05-23T11:22:33;101202.94;;;13.85;78.17
7297;BME280;40758;54.038;11.684;2023-05-23T11:25:01;101219.06;;;13.75;78.52
7297;BME280;40758;54.038;11.684;2023-05-23T11:27:35;101224.13;;;13.71;78.76
7297;BME280;40758;54.038;11.684;2023-05-23T11:30:07;101228.47;;;13.61;79.01
7297;BME280;40758;54.038;11.684;2023-05-23T11:32:41;101204.38;;;13.39;79.53
7297;BME280;40758;54.038;11.684;2023-05-23T11:35:17;101217.72;;;13.47;79.35
7297;BME280;40758;54.038;11.684;2023-05-23T11:37:43;101235.16;;;13.46;79.76
7297;BME280;40758;54.038;11.684;2023-05-23T11:40:30;101243.19;;;13.41;79.80
7297;BME280;40758;54.038;11.684;2023-05-23T11:43:04;101250.97;;;13.19;80.27
7297;BME280;40758;54.038;11.684;2023-05-23T11:45:33;101241.69;;;13.02;80.54
7297;BME280;40758;54.038;11.684;2023-05-23T11:48:11;101254.19;;;13.10;80.83
7297;BME280;40758;54.038;11.684;2023-05-23T11:50:52;101258.63;;;13.11;80.58
7297;BME280;40758;54.038;11.684;2023-05-23T11:53:20;101252.44;;;12.97;80.87
7297;BME280;40758;54.038;11.684;2023-05-23T11:55:53;101262.81;;;12.88;81.11
7297;BME280;40758;54.038;11.684;2023-05-23T11:58:21;101257.69;;;12.73;81.36
7297;BME280;40758;54.038;11.684;2023-05-23T12:00:51;101277.25;;;12.64;81.67
7297;BME280;40758;54.038;11.684;2023-05-23T12:03:20;101267.13;;;12.46;82.65
7297;BME280;40758;54.038;11.684;2023-05-23T12:05:48;101271.63;;;12.34;82.70
7297;BME280;40758;54.038;11.684;2023-05-23T12:08:15;101273.38;;;12.21;83.49
7297;BME280;40758;54.038;11.684;2023-05-23T12:10:50;101283.13;;;12.04;84.09
7297;BME280;40758;54.038;11.684;2023-05-23T12:13:19;101271.28;;;11.85;84.05
7297;BME280;40758;54.038;11.684;2023-05-23T12:15:46;101291.41;;;11.84;84.85
7297;BME280;40758;54.038;11.684;2023-05-23T12:18:15;101276.78;;;11.59;84.84
7297;BME280;40758;54.038;11.684;2023-05-23T12:20:42;101302.13;;;11.66;85.13
7297;BME280;40758;54.038;11.684;2023-05-23T12:23:17;101305.69;;;11.60;85.50
7297;BME280;40758;54.038;11.684;2023-05-23T12:25:48;101309.69;;;11.51;85.47
7297;BME280;40758;54.038;11.684;2023-05-23T12:28:15;101308.88;;;11.43;85.53
7297;BME280;40758;54.038;11.684;2023-05-23T12:30:42;101317.06;;;11.24;85.37
7297;BME280;40758;54.038;11.684;2023-05-23T12:33:10;101324.41;;;11.10;85.16
7297;BME280;40758;54.038;11.684;2023-05-23T12:35:42;101330.69;;;11.04;85.97
7297;BME280;40758;54.038;11.684;2023-05-23T12:38:15;101337.56;;;11.00;85.71
7297;BME280;40758;54.038;11.684;2023-05-23T12:40:44;101328.59;;;10.86;85.99
7297;BME280;40758;54.038;11.684;2023-05-23T12:43:14;101335.25;;;10.90;85.90
7297;BME280;40758;54.038;11.684;2023-05-23T12:45:41;101339.69;;;10.91;86.35
7297;BME280;40758;54.038;11.684;2023-05-23T12:48:09;101326.28;;;10.83;86.53
7297;BME280;40758;54.038;11.684;2023-05-23T12:50:36;101351.16;;;10.86;86.90
7297;BME280;40758;54.038;11.684;2023-05-23T12:53:04;101351.16;;;10.80;86.95
7297;BME280;40758;54.038;11.684;2023-05-23T12:55:31;101347.81;;;10.71;86.93
7297;BME280;40758;54.038;11.684;2023-05-23T12:57:58;101340.69;;;10.57;87.28
7297;BME280;40758;54.038;11.684;2023-05-23T13:00:24;101355.50;;;10.61;87.87
7297;BME280;40758;54.038;11.684;2023-05-23T13:02:51;101359.69;;;10.57;87.77
7297;BME280;40758;54.038;11.684;2023-05-23T13:05:18;101363.47;;;10.56;88.04
7297;BME280;40758;54.038;11.684;2023-05-23T13:07:45;101361.97;;;10.47;88.02